Wednesday, October 17, 2018, 8:35 AM GMT
Back to Local

CYQM, Moncton, N. B.

Location: , , Canada Lat: 46.117
Local Time: 8:35 AM GMT ( 8:35 GMT) Lon: -64.683
Time Zone: GMT Elev: 232 ft

Show me the last for .
Show Decoded

2018-10-17 08:00 METAR CYQM 170800Z 22007KT 15SM SKC 00/M02 A2985 RMK SLP111 =
2018-10-17 07:00 METAR CYQM 170700Z 23007KT 15SM SKC 01/M02 A2985 RMK SLP111 =
2018-10-17 06:00 METAR CYQM 170600Z 23009KT 15SM SKC 01/M02 A2985 RMK SLP112 =
2018-10-17 05:00 METAR CYQM 170500Z 24008KT 15SM SKC 02/M02 A2983 RMK SLP105 =
2018-10-17 04:00 METAR CYQM 170400Z 23007KT 15SM SKC 02/M02 A2982 RMK SLP103 =
2018-10-17 03:36 METAR CYQM 170336Z 22007KT 15SM SKC 02/M02 A2982 RMK SLP102 =
2018-10-17 03:00 METAR CYQM 170300Z 24009KT 15SM SKC 04/M02 A2982 RMK SLP101 =
2018-10-17 02:00 METAR CYQM 170200Z 25012G21KT 15SM SKC 04/M02 A2980 RMK SLP096 =
2018-10-17 01:00 METAR CYQM 170100Z 25013G19KT 15SM SKC 05/M02 A2978 RMK SLP088 =
2018-10-17 00:00 METAR CYQM 170000Z 25012G23KT 15SM FEW095 06/M02 A2976 RMK AC1 SLP080 =
2018-10-16 23:00 METAR CYQM 162300Z 25016G22KT 15SM FEW095 07/M02 A2972 RMK AC1 SLP069 =
2018-10-16 22:00 METAR CYQM 162200Z 25012G19KT 15SM FEW080 08/M01 A2970 RMK AC1 PRESRR SLP060 =
2018-10-16 21:00 METAR CYQM 162100Z 26016G27KT 15SM FEW046 09/M00 A2966 RMK SC1 SC TR SLP046 =
2018-10-16 20:00 METAR CYQM 162000Z 25017G24KT 15SM FEW048 10/M00 A2963 RMK SC2 SLP038 =
2018-10-16 19:00 METAR CYQM 161900Z 25024G33KT 15SM SCT046 10/00 A2961 RMK SC3 SLP029 =
2018-10-16 18:00 METAR CYQM 161800Z 25028G38KT 15SM BKN046 10/00 A2958 RMK SC6 SLP020 =
2018-10-16 17:00 METAR CYQM 161700Z 26022G37KT 15SM BKN043 10/01 A2956 RMK SC6 SLP012 =
2018-10-16 16:00 METAR CYQM 161600Z 24028G36KT 15SM BKN044 09/00 A2954 RMK SC7 SLP006 =
2018-10-16 15:00 METAR CYQM 161500Z 25026G38KT 15SM BKN046 08/00 A2951 RMK SC7 SLP997 =
2018-10-16 14:00 METAR CYQM 161400Z 25024G41KT 15SM BKN041 07/00 A2948 RMK SC7 SLP987 =
2018-10-16 13:24 METAR CYQM 161324Z 25022G38KT 15SM BKN040 06/02 A2947 RMK SC6 SH E PRESFR SLP983
                 =
2018-10-16 13:00 METAR CYQM 161300Z 26026G34KT 15SM -SHRA BKN029 BKN058 05/02 A2948 RMK SC6SC1
                 CVCTV CLD EMBD SLP985 =
2018-10-16 12:45 METAR CYQM 161245Z 26023G29KT 15SM -SHRA SCT033 BKN058 07/00 A2946 RMK SC3SC4
                 CVCTV CLD EMBD SLP981 =
2018-10-16 12:00 METAR CYQM 161200Z 25027G47KT 15SM FEW020 SCT090 07/M01 A2945 RMK SC2AC1 SH S
                 SLP976 =
2018-10-16 11:35 METAR CYQM 161135Z 26035G44KT 15SM FEW015 FEW090 07/M00 A2943 RMK SC1AC1 SH SW
                 PRESRR SLP969 =
2018-10-16 11:00 METAR CYQM 161100Z 25015G26KT 15SM FEW015 BKN088 07/02 A2941 RMK SC1AC4 SLP962 =
2018-10-16 10:20 METAR CYQM 161020Z 25016G25KT 15SM FEW015 BKN061 08/04 A2940 RMK SC1SC6 SLP959 =
2018-10-16 10:00 METAR CYQM 161000Z 26026G36KT 15SM -RA SCT015 OVC058 09/03 A2939 RMK SC3SC5
                 SLP956 =
2018-10-16 09:22 METAR CYQM 160922Z 28031G43KT 8SM RA BKN015 OVC030 11/08 A2935 RMK SF5SC3 PRESRR
                 SLP942 DENSITY ALT 500FT =
2018-10-16 09:11 METAR CYQM 160911Z 25017G24KT 15SM -RA BKN015 BKN045 13/11 A2934 RMK SF5SC2
                 SLP937 DENSITY ALT 700FT =
2018-10-16 09:00 METAR CYQM 160900Z 25017KT 15SM SCT012 BKN030 BKN070 13/11 A2935 RMK SF3SC2AC2
                 SLP940 DENSITY ALT 700FT =
2018-10-16 08:47 METAR CYQM 160847Z 25012G18KT 15SM FEW010 SCT030 BKN100 13/12 A2933 RMK
                 SF2SC1AC4 SLP936 DENSITY ALT 700FT =

Support USWX by starting your Amazon purchase here.